Time;durP1;ratioP1;P1;durP2;ratioP2;P2;SDS_P1;SDS_P2;PMS_P1;PMS_P2;Temp;Humidity;BMP_temperature;BMP_pressure;BME280_temperature;BME280_humidity;BME280_pressure;Samples;Min_cycle;Max_cycle;Signal;HPM_P1;HPM_P2
2022/09/03 00:00:57;;;;;;;3.70;1.80;;;;;;;16.93;51.88;101003.22;4991380;28;20049;-74
2022/09/03 00:03:27;;;;;;;4.47;1.77;;;;;;;16.88;52.15;100999.56;5001568;28;20124;-73
2022/09/03 00:06:05;;;;;;;4.13;1.35;;;;;;;16.86;52.16;101006.22;5005465;28;20855;-73
2022/09/03 00:08:33;;;;;;;;;;;;;;;16.95;50.63;100995.47;5004128;28;20022;-73
2022/09/03 00:11:13;;;;;;;3.65;1.52;;;;;;;16.83;51.81;100992.91;4999533;28;19972;-73
2022/09/03 00:13:44;;;;;;;3.40;1.60;;;;;;;16.78;52.15;100998.44;5003713;28;20040;-73
2022/09/03 00:16:12;;;;;;;3.03;1.63;;;;;;;16.74;52.16;100990.91;5002074;28;20029;-74
2022/09/03 00:18:49;;;;;;;4.13;1.80;;;;;;;16.72;52.02;100993.09;5015049;28;20069;-73
2022/09/03 00:21:30;;;;;;;3.08;1.70;;;;;;;16.65;52.08;100998.03;5022107;28;20171;-74
2022/09/03 00:24:00;;;;;;;4.57;1.70;;;;;;;16.60;52.95;100999.66;5022983;28;20111;-74
2022/09/03 00:26:30;;;;;;;2.75;1.60;;;;;;;16.54;52.98;100992.41;5014301;28;20463;-73
2022/09/03 00:29:03;;;;;;;3.35;1.58;;;;;;;16.54;53.05;100997.97;4998003;28;20111;-73
2022/09/03 00:31:41;;;;;;;3.83;1.75;;;;;;;16.54;52.71;100994.34;5002585;28;20041;-74
2022/09/03 00:34:22;;;;;;;3.42;1.73;;;;;;;16.51;52.89;100984.63;5020916;28;20111;-73
2022/09/03 00:36:48;;;;;;;3.45;1.55;;;;;;;16.45;53.13;100995.94;5020113;28;20036;-73
2022/09/03 00:39:26;;;;;;;2.30;1.50;;;;;;;16.43;53.38;100989.84;5020395;28;20191;-73
2022/09/03 00:42:14;;;;;;;3.28;1.80;;;;;;;16.41;53.13;100994.81;5013707;28;20069;-73
2022/09/03 00:44:59;;;;;;;;;;;;;;;16.48;51.66;100989.88;5020440;28;20488;-73
2022/09/03 00:47:50;;;;;;;5.03;1.85;;;;;;;16.34;53.04;100989.50;4998374;28;19963;-73
2022/09/03 00:50:34;;;;;;;4.85;1.60;;;;;;;16.26;53.62;100988.03;5015996;28;20040;-72
2022/09/03 00:53:05;;;;;;;5.28;1.85;;;;;;;16.27;53.98;100995.28;5022775;28;20112;-73
2022/09/03 00:55:57;;;;;;;3.05;1.63;;;;;;;16.26;53.24;100984.44;5019310;28;20037;-74
2022/09/03 00:58:31;;;;;;;5.45;1.70;;;;;;;16.29;53.85;100998.59;5002749;28;20135;-73
2022/09/03 01:00:56;;;;;;;2.97;1.80;;;;;;;16.30;52.85;100985.59;5000932;28;20029;-74
2022/09/03 01:03:35;;;;;;;2.78;1.77;;;;;;;16.32;53.46;100994.44;4997393;28;20095;-73
2022/09/03 01:06:06;;;;;;;2.25;1.60;;;;;;;16.33;53.47;100994.22;5002127;28;20018;-73
2022/09/03 01:08:40;;;;;;;4.47;1.80;;;;;;;16.32;52.86;100989.78;5007135;28;20116;-74
2022/09/03 01:11:26;;;;;;;4.82;1.88;;;;;;;16.35;52.70;100989.22;5022083;28;20029;-74
2022/09/03 01:14:06;;;;;;;3.80;1.83;;;;;;;16.41;53.17;100990.09;4999747;28;20044;-73
2022/09/03 01:16:50;;;;;;;3.97;1.77;;;;;;;16.42;52.71;100985.38;5008550;28;20080;-73
2022/09/03 01:19:36;;;;;;;2.38;1.67;;;;;;;16.44;52.48;100985.97;5022235;28;20092;-74
2022/09/03 01:22:50;;;;;;;5.53;2.20;;;;;;;16.41;53.13;100983.72;5020218;28;20029;-74
2022/09/03 01:25:37;;;;;;;4.32;1.70;;;;;;;16.41;53.41;100989.25;5023139;28;20044;-74
2022/09/03 01:28:18;;;;;;;3.97;1.77;;;;;;;16.36;52.79;100987.28;5001777;28;20472;-74
2022/09/03 01:30:49;;;;;;;5.10;2.20;;;;;;;16.28;53.45;100985.84;5001488;28;20083;-73
2022/09/03 01:33:22;;;;;;;4.90;2.15;;;;;;;16.26;53.82;100992.75;4982364;28;20133;-73
2022/09/03 01:36:06;;;;;;;3.50;1.70;;;;;;;16.25;53.69;100999.41;5008155;28;20034;-73
2022/09/03 01:38:43;;;;;;;3.90;1.63;;;;;;;16.23;53.45;100998.84;5008725;28;20064;-73
2022/09/03 01:44:39;;;;;;;3.70;1.63;;;;;;;16.14;53.71;100994.88;5014909;28;20796;-73
2022/09/03 01:47:36;;;;;;;4.78;1.85;;;;;;;16.07;53.44;100995.13;5004287;28;20037;-73
2022/09/03 01:50:10;;;;;;;2.88;1.80;;;;;;;16.00;53.70;100988.94;5024842;28;20021;-74
2022/09/03 01:52:53;;;;;;;4.30;1.90;;;;;;;15.98;53.81;100985.59;5026223;28;20033;-74
2022/09/03 01:55:39;;;;;;;2.65;1.77;;;;;;;15.99;54.27;100988.09;5026436;28;20021;-73
2022/09/03 01:58:14;;;;;;;4.32;1.70;;;;;;;15.95;54.71;100998.03;5005948;28;20062;-73
2022/09/03 02:00:43;;;;;;;3.63;1.98;;;;;;;15.92;54.79;100992.19;5005766;28;20037;-73
2022/09/03 02:03:11;;;;;;;5.47;1.90;;;;;;;15.84;54.66;100990.72;5022364;28;20036;-73
2022/09/03 02:05:37;;;;;;;3.65;1.60;;;;;;;15.79;55.49;100987.91;5019014;28;20026;-73
2022/09/03 02:08:06;;;;;;;2.80;1.52;;;;;;;15.76;55.31;100994.81;5013614;28;20026;-73
2022/09/03 02:10:49;;;;;;;4.82;2.17;;;;;;;15.73;55.02;100994.50;5016101;28;20048;-73
2022/09/03 02:13:34;;;;;;;3.88;1.58;;;;;;;15.74;55.16;100990.63;5013517;28;20430;-73
2022/09/03 02:16:06;;;;;;;3.47;2.00;;;;;;;15.67;55.58;100988.09;5011747;28;20034;-73
2022/09/03 02:18:37;;;;;;;4.00;1.80;;;;;;;15.64;55.25;100991.34;5012929;28;20505;-73
2022/09/03 02:21:04;;;;;;;2.78;1.55;;;;;;;15.61;55.97;100986.31;5022720;28;20030;-73
2022/09/03 02:23:29;;;;;;;3.22;1.77;;;;;;;15.57;56.01;100976.88;5016454;28;20554;-73
2022/09/03 02:25:58;;;;;;;3.22;1.60;;;;;;;15.56;55.97;100977.94;5001548;28;20038;-73
2022/09/03 02:28:25;;;;;;;3.08;1.73;;;;;;;15.59;56.05;100982.97;5019465;28;20076;-73
2022/09/03 02:30:51;;;;;;;4.07;1.60;;;;;;;15.60;56.09;100978.25;5013538;28;20030;-73
2022/09/03 02:33:16;;;;;;;4.20;1.50;;;;;;;15.58;55.13;100984.06;5003190;28;20049;-73
2022/09/03 02:35:42;;;;;;;3.05;2.05;;;;;;;15.57;56.42;100979.63;5008915;28;20275;-73
2022/09/03 02:38:19;;;;;;;4.85;1.60;;;;;;;15.55;55.41;100981.81;5005830;28;20180;-73
2022/09/03 02:40:45;;;;;;;3.10;1.87;;;;;;;15.53;56.08;100984.84;5017807;28;20488;-73
2022/09/03 02:43:19;;;;;;;4.22;1.70;;;;;;;15.53;56.83;100984.84;4999284;28;20159;-73
2022/09/03 02:45:47;;;;;;;3.95;1.98;;;;;;;15.53;55.40;100984.84;5018744;28;20885;-74
2022/09/03 02:48:15;;;;;;;;;;;;;;;15.63;54.33;100988.81;5015517;28;20037;-73
2022/09/03 02:50:41;;;;;;;3.63;1.80;;;;;;;15.51;54.88;100981.53;5022324;28;20239;-74
2022/09/03 02:53:07;;;;;;;3.45;1.88;;;;;;;15.50;55.43;100981.75;5013148;28;20026;-73
2022/09/03 02:55:32;;;;;;;3.72;1.63;;;;;;;15.46;56.00;100987.00;5015543;28;20524;-73
2022/09/03 02:57:59;;;;;;;3.70;1.70;;;;;;;15.46;55.87;100986.13;5016175;28;20061;-73
2022/09/03 03:00:25;;;;;;;2.47;1.60;;;;;;;15.41;56.40;100983.31;5005404;28;20478;-73
2022/09/03 03:02:51;;;;;;;4.05;1.63;;;;;;;15.47;56.49;100988.66;5003289;28;20456;-74
2022/09/03 03:05:26;;;;;;;3.15;1.75;;;;;;;15.44;56.09;100985.56;5014692;28;20053;-73
2022/09/03 03:07:51;;;;;;;4.05;1.80;;;;;;;15.43;56.51;100981.97;5014264;28;20026;-73
2022/09/03 03:10:17;;;;;;;3.63;1.55;;;;;;;15.38;56.19;100987.44;5020755;28;20038;-73
2022/09/03 03:12:42;;;;;;;2.60;1.52;;;;;;;15.34;56.67;100986.28;5016458;28;20053;-73
2022/09/03 03:15:07;;;;;;;4.20;1.75;;;;;;;15.32;56.15;100977.41;5004940;28;20551;-72
2022/09/03 03:17:33;;;;;;;3.50;1.52;;;;;;;15.34;56.59;100983.53;5011340;28;20087;-73
2022/09/03 03:19:58;;;;;;;2.92;1.73;;;;;;;15.34;56.90;100975.22;5015283;28;20026;-73
2022/09/03 03:22:23;;;;;;;3.35;1.80;;;;;;;15.27;56.97;100980.97;5006244;28;20115;-73
2022/09/03 03:24:49;;;;;;;3.67;1.70;;;;;;;15.23;57.11;100977.03;5005275;28;20486;-73
2022/09/03 03:27:15;;;;;;;3.72;1.77;;;;;;;15.21;57.11;100981.16;5004366;28;20135;-73
2022/09/03 03:29:40;;;;;;;4.90;1.80;;;;;;;15.20;58.04;100983.06;5005041;28;20025;-74
2022/09/03 03:32:05;;;;;;;5.35;1.98;;;;;;;15.16;57.13;100983.88;5007043;28;20087;-73
2022/09/03 03:34:30;;;;;;;2.30;1.70;;;;;;;15.16;57.08;100975.56;5016570;28;20033;-73
2022/09/03 03:36:56;;;;;;;3.97;1.95;;;;;;;15.16;56.73;100978.34;5004485;28;20571;-73
2022/09/03 03:39:21;;;;;;;2.92;1.77;;;;;;;15.13;57.86;100987.13;5004940;28;20013;-73
2022/09/03 03:41:46;;;;;;;2.88;1.58;;;;;;;15.11;57.43;100989.34;5004704;28;20113;-73
2022/09/03 03:44:12;;;;;;;4.30;1.70;;;;;;;15.10;58.09;100996.78;5003949;28;20041;-73
2022/09/03 03:46:39;;;;;;;2.72;1.52;;;;;;;15.06;57.91;101006.72;5002056;28;20145;-73
2022/09/03 03:49:06;;;;;;;3.50;1.98;;;;;;;15.02;57.61;100984.25;5014662;28;20037;-73
2022/09/03 03:51:32;;;;;;;4.53;1.77;;;;;;;14.98;58.13;100994.16;5021823;28;20051;-73
2022/09/03 03:53:58;;;;;;;3.47;1.80;;;;;;;14.95;57.86;100994.69;5005883;28;20034;-74
2022/09/03 03:56:25;;;;;;;2.25;1.58;;;;;;;14.97;58.78;100986.94;5003839;28;20026;-73
2022/09/03 03:58:51;;;;;;;4.47;1.80;;;;;;;14.90;58.14;100991.84;5005236;28;20022;-73
2022/09/03 04:01:19;;;;;;;3.53;1.98;;;;;;;14.95;58.94;100991.03;5011801;28;20033;-72
2022/09/03 04:03:45;;;;;;;2.88;1.80;;;;;;;14.93;58.38;100987.72;5001508;28;20026;-73
2022/09/03 04:06:12;;;;;;;3.92;1.83;;;;;;;14.93;58.23;100982.19;5002526;28;20742;-73
2022/09/03 04:08:39;;;;;;;4.28;1.77;;;;;;;14.93;57.79;100984.94;5013424;28;20034;-73
2022/09/03 04:11:07;;;;;;;3.00;1.95;;;;;;;14.92;58.33;100977.75;5013168;28;20034;-73
2022/09/03 04:13:35;;;;;;;2.95;1.60;;;;;;;14.96;58.24;100974.22;5003635;28;20026;-73
2022/09/03 04:16:06;;;;;;;3.28;1.55;;;;;;;14.92;58.06;100973.06;5002109;28;20460;-73
2022/09/03 04:18:33;;;;;;;5.47;1.83;;;;;;;14.93;58.12;100968.34;5002380;28;20103;-73
2022/09/03 04:21:10;;;;;;;3.65;1.63;;;;;;;14.97;58.01;100977.81;5012233;28;20422;-72
2022/09/03 04:23:38;;;;;;;2.42;1.50;;;;;;;14.92;58.46;100967.53;5004366;28;20034;-73
2022/09/03 04:26:04;;;;;;;2.70;1.65;;;;;;;14.93;59.32;100968.34;5019246;28;20709;-73
2022/09/03 04:28:29;;;;;;;3.95;1.90;;;;;;;14.92;58.65;100967.53;5006061;28;20444;-73
2022/09/03 04:31:00;;;;;;;4.53;1.60;;;;;;;14.93;58.37;100973.88;5009956;28;20057;-73
2022/09/03 04:33:26;;;;;;;3.00;1.73;;;;;;;14.90;58.61;100974.38;5013586;28;20416;-73
2022/09/03 04:35:51;;;;;;;2.67;1.40;;;;;;;14.88;58.86;100974.66;5023021;28;20041;-73
2022/09/03 04:38:16;;;;;;;2.55;1.83;;;;;;;14.88;58.83;100966.34;5017464;28;20131;-74
2022/09/03 04:40:41;;;;;;;2.40;1.60;;;;;;;14.85;58.76;100968.78;5001435;28;20041;-73
2022/09/03 04:43:07;;;;;;;2.38;1.70;;;;;;;14.84;59.29;100975.41;5007148;28;20113;-73
2022/09/03 04:45:32;;;;;;;4.65;1.75;;;;;;;14.83;58.21;100969.06;5023130;28;20029;-72
2022/09/03 04:47:59;;;;;;;3.28;1.70;;;;;;;14.82;58.77;100974.84;5021883;28;20025;-72
2022/09/03 04:50:26;;;;;;;3.87;1.60;;;;;;;14.78;58.77;100978.13;5002476;28;20091;-73
2022/09/03 04:52:59;;;;;;;4.85;1.90;;;;;;;14.77;59.49;100973.69;5003327;28;20044;-72
2022/09/03 04:55:24;;;;;;;3.35;1.70;;;;;;;14.75;58.77;100978.66;5002600;28;20385;-73
2022/09/03 04:57:50;;;;;;;3.10;1.55;;;;;;;14.72;58.83;100978.31;5020073;28;20031;-72
2022/09/03 05:00:17;;;;;;;3.53;1.60;;;;;;;14.70;59.22;100983.22;5006579;28;20026;-73
2022/09/03 05:02:47;;;;;;;2.47;1.60;;;;;;;14.67;59.30;100984.59;5002839;28;20565;-73
2022/09/03 05:05:12;;;;;;;3.28;2.00;;;;;;;14.64;59.15;100984.25;5017974;28;20096;-73
2022/09/03 05:07:38;;;;;;;2.72;1.83;;;;;;;14.63;59.80;100985.34;5019036;28;20387;-73
2022/09/03 05:10:08;;;;;;;3.63;1.80;;;;;;;14.60;59.78;100980.31;5004553;28;20052;-73
2022/09/03 05:12:34;;;;;;;3.67;2.00;;;;;;;14.56;60.18;100974.50;5009095;28;20033;-73
2022/09/03 05:14:59;;;;;;;4.25;2.10;;;;;;;14.56;60.01;100979.19;5017898;28;20022;-72
2022/09/03 05:17:26;;;;;;;4.72;2.42;;;;;;;14.55;60.18;100978.34;5012260;28;20048;-72
2022/09/03 05:19:52;;;;;;;4.47;2.15;;;;;;;14.55;60.59;100981.13;5004870;28;20567;-73
2022/09/03 05:22:20;;;;;;;4.07;2.13;;;;;;;14.56;60.27;100981.94;5023304;28;20021;-73
2022/09/03 05:24:47;;;;;;;5.13;2.00;;;;;;;14.60;60.07;100980.31;5016502;28;20044;-73
2022/09/03 05:27:13;;;;;;;3.97;2.03;;;;;;;14.60;59.71;100983.09;5012002;28;20023;-72
2022/09/03 05:29:38;;;;;;;4.10;1.83;;;;;;;14.63;59.86;100985.34;5018558;28;20029;-72
2022/09/03 05:32:03;;;;;;;3.95;2.10;;;;;;;14.65;60.27;100980.41;5003819;28;20427;-72
2022/09/03 05:34:28;;;;;;;3.90;1.83;;;;;;;14.67;60.29;100987.38;5005900;28;20125;-73
2022/09/03 05:36:57;;;;;;;3.97;2.10;;;;;;;14.69;60.11;100978.81;5012069;28;20023;-73
2022/09/03 05:39:22;;;;;;;4.35;2.05;;;;;;;14.72;60.34;100972.78;5003714;28;20655;-73
2022/09/03 05:41:49;;;;;;;5.20;2.10;;;;;;;14.75;60.69;100975.00;4998147;28;20022;-72
2022/09/03 05:44:14;;;;;;;4.20;2.10;;;;;;;14.76;60.26;100980.31;5010778;28;20022;-72
2022/09/03 05:46:40;;;;;;;5.15;2.22;;;;;;;14.77;60.25;100981.16;5001739;28;20076;-72
2022/09/03 05:49:06;;;;;;;5.22;2.10;;;;;;;14.80;61.35;100977.88;5001463;28;20022;-72
2022/09/03 05:51:33;;;;;;;4.68;1.92;;;;;;;14.82;61.10;100983.16;5003339;28;20120;-72
2022/09/03 05:53:59;;;;;;;4.53;1.70;;;;;;;14.86;60.15;100979.63;5001827;28;20018;-72
2022/09/03 05:56:27;;;;;;;3.60;1.92;;;;;;;14.87;59.73;100986.81;5002657;28;20033;-72
2022/09/03 05:58:55;;;;;;;4.95;2.15;;;;;;;14.89;59.88;100989.31;5004951;28;20089;-72
2022/09/03 06:01:25;;;;;;;3.85;1.70;;;;;;;14.91;60.35;100989.91;5008049;28;20121;-68
2022/09/03 06:03:59;;;;;;;5.25;2.17;;;;;;;14.98;60.32;100976.72;5001563;28;20037;-72
2022/09/03 06:06:26;;;;;;;3.22;1.60;;;;;;;15.06;59.19;100981.81;5002119;28;20124;-72
2022/09/03 06:08:53;;;;;;;3.85;1.83;;;;;;;15.14;59.61;100984.09;5002622;28;20030;-72
2022/09/03 06:11:20;;;;;;;4.30;1.80;;;;;;;15.21;59.50;100986.69;5001782;28;20021;-72
2022/09/03 06:13:46;;;;;;;3.72;1.80;;;;;;;15.32;58.90;100982.97;5002839;28;20524;-72
2022/09/03 06:16:11;;;;;;;3.08;1.55;;;;;;;15.42;59.00;100977.53;5002344;28;20037;-72
2022/09/03 06:18:36;;;;;;;3.53;1.60;;;;;;;15.53;59.71;100976.53;5001922;28;20029;-72
2022/09/03 06:21:05;;;;;;;3.95;1.65;;;;;;;15.66;58.50;100977.25;5001662;28;20036;-73
2022/09/03 06:23:31;;;;;;;3.05;1.60;;;;;;;15.76;58.91;100977.34;5002071;28;20057;-73
2022/09/03 06:26:13;;;;;;;4.38;1.77;;;;;;;15.89;57.73;100984.41;5001876;28;20060;-73
2022/09/03 06:28:42;;;;;;;3.05;1.90;;;;;;;16.03;58.13;100978.16;5002738;28;20034;-72
2022/09/03 06:31:09;;;;;;;4.05;1.60;;;;;;;16.18;56.92;100979.41;5004308;28;20022;-72
2022/09/03 06:33:36;;;;;;;4.97;1.80;;;;;;;16.29;56.62;100983.91;5004594;28;20049;-72
2022/09/03 06:36:04;;;;;;;4.10;2.05;;;;;;;16.42;57.03;100990.94;5002287;28;20056;-73
2022/09/03 06:38:32;;;;;;;4.50;2.13;;;;;;;16.51;57.03;100983.78;5004760;28;20049;-73
2022/09/03 06:41:02;;;;;;;5.53;2.10;;;;;;;16.60;56.46;100982.19;5002812;28;20373;-72
2022/09/03 06:43:32;;;;;;;3.85;1.88;;;;;;;16.69;56.32;100986.13;5005864;28;20049;-73
2022/09/03 06:46:11;;;;;;;4.70;1.70;;;;;;;16.77;56.08;100982.88;5004959;28;20433;-72
2022/09/03 06:48:37;;;;;;;3.80;1.60;;;;;;;16.83;55.08;100981.81;5003860;28;20026;-72
2022/09/03 06:51:05;;;;;;;3.10;1.40;;;;;;;16.93;54.98;100986.59;5005579;28;20038;-73
2022/09/03 06:53:33;;;;;;;3.58;1.40;;;;;;;17.07;55.20;100981.34;5005496;28;20037;-73
2022/09/03 06:56:01;;;;;;;5.07;1.60;;;;;;;17.22;55.15;100977.81;5005096;28;20029;-73
2022/09/03 06:58:31;;;;;;;4.25;1.52;;;;;;;17.36;54.29;100982.59;5005997;28;20033;-72
2022/09/03 07:01:07;;;;;;;4.72;1.40;;;;;;;17.49;54.36;100980.41;5003484;28;20868;-73
2022/09/03 07:03:33;;;;;;;5.65;1.30;;;;;;;17.63;53.69;100978.75;5004477;28;20413;-73
2022/09/03 07:06:00;;;;;;;4.22;1.65;;;;;;;17.75;53.41;100982.16;5005079;28;20031;-73
2022/09/03 07:08:26;;;;;;;4.47;1.55;;;;;;;17.92;53.52;100978.28;5004920;28;20477;-73
2022/09/03 07:10:51;;;;;;;5.03;1.73;;;;;;;18.10;53.64;100977.75;5004822;28;20025;-73
2022/09/03 07:13:17;;;;;;;5.35;1.60;;;;;;;18.26;52.47;100986.94;5005007;28;20758;-73
2022/09/03 07:15:43;;;;;;;5.80;1.83;;;;;;;18.38;51.73;100985.50;5003993;28;20037;-73
2022/09/03 07:18:08;;;;;;;5.85;1.40;;;;;;;18.48;52.01;100979.09;5000039;28;20025;-73
2022/09/03 07:20:34;;;;;;;5.05;1.60;;;;;;;18.60;52.04;100984.38;5004826;28;20053;-73
2022/09/03 07:22:59;;;;;;;4.45;1.33;;;;;;;18.68;51.59;100983.84;5003058;28;20501;-73
2022/09/03 07:25:25;;;;;;;4.30;1.37;;;;;;;18.72;51.25;100978.56;5003407;28;20030;-72
2022/09/03 07:27:51;;;;;;;3.20;1.10;;;;;;;18.73;51.50;100975.47;5001445;28;20288;-73
2022/09/03 07:30:18;;;;;;;2.50;1.10;;;;;;;18.74;50.33;100979.09;5004611;28;20045;-72
2022/09/03 07:32:45;;;;;;;4.20;1.20;;;;;;;18.73;49.62;100977.44;5004337;28;20378;-73
2022/09/03 07:35:10;;;;;;;2.63;1.20;;;;;;;18.71;49.79;100982.47;5004619;28;20038;-72
2022/09/03 07:37:37;;;;;;;4.03;1.58;;;;;;;18.71;49.32;100977.72;5003518;28;20028;-72
2022/09/03 07:40:03;;;;;;;4.30;1.33;;;;;;;18.69;49.81;100984.66;5003119;28;20087;-73
2022/09/03 07:42:29;;;;;;;3.83;1.38;;;;;;;18.69;49.93;100990.22;5004158;28;20033;-73
2022/09/03 07:44:55;;;;;;;2.97;1.30;;;;;;;18.73;49.84;100991.34;5004385;28;20029;-73
2022/09/03 07:47:20;;;;;;;4.20;1.60;;;;;;;18.78;49.14;100997.72;5004276;28;20026;-72
2022/09/03 07:49:45;;;;;;;4.22;1.40;;;;;;;18.84;49.35;101001.31;5004122;28;20032;-72
2022/09/03 07:52:11;;;;;;;5.32;1.60;;;;;;;18.90;49.33;100994.63;5003989;28;20030;-73
2022/09/03 07:54:36;;;;;;;5.03;1.73;;;;;;;18.95;49.97;100991.81;5003742;28;20087;-73
2022/09/03 07:57:01;;;;;;;3.42;1.50;;;;;;;18.97;47.88;100986.81;5003669;28;20700;-73
2022/09/03 07:59:27;;;;;;;3.00;1.70;;;;;;;18.98;49.56;100988.50;5004509;28;20026;-73
2022/09/03 08:01:52;;;;;;;6.65;1.88;;;;;;;19.01;49.34;100989.84;5002813;28;20054;-71
2022/09/03 08:04:18;;;;;;;3.67;1.48;;;;;;;19.05;48.59;100994.56;5003925;28;20034;-73
2022/09/03 08:06:43;;;;;;;3.67;1.60;;;;;;;19.09;49.05;100995.69;5004229;28;20097;-73
2022/09/03 08:09:12;;;;;;;4.85;1.70;;;;;;;19.15;48.85;101002.06;5004322;28;20037;-73
2022/09/03 08:11:39;;;;;;;5.22;2.10;;;;;;;19.27;48.85;100999.78;5003313;28;20037;-73
2022/09/03 08:14:07;;;;;;;6.60;1.80;;;;;;;19.39;48.56;100999.47;5003974;28;20050;-73
2022/09/03 08:16:38;;;;;;;5.60;2.05;;;;;;;19.55;48.35;100992.69;5004303;28;20060;-73
2022/09/03 08:19:04;;;;;;;3.92;1.80;;;;;;;19.67;47.67;100997.97;5002456;28;20022;-74
2022/09/03 08:21:30;;;;;;;4.55;1.85;;;;;;;19.74;48.27;100998.47;5003589;28;20105;-74
2022/09/03 08:24:02;;;;;;;6.13;2.00;;;;;;;19.77;48.93;100997.03;5003252;28;20116;-73
2022/09/03 08:26:36;;;;;;;4.78;1.80;;;;;;;19.79;47.57;101004.00;5002888;28;20030;-73
2022/09/03 08:29:03;;;;;;;6.72;2.10;;;;;;;19.92;47.60;101010.88;5001033;28;20521;-74
2022/09/03 08:31:29;;;;;;;7.85;2.00;;;;;;;20.02;47.93;100999.66;5002166;28;20485;-74
2022/09/03 08:33:57;;;;;;;6.47;2.25;;;;;;;20.08;48.40;101006.03;5000226;28;20045;-73
2022/09/03 08:36:26;;;;;;;;;;;;;;;20.22;47.73;101007.00;5021561;28;20032;-74
2022/09/03 08:38:55;;;;;;;4.55;1.70;;;;;;;20.28;47.49;101005.88;5010299;28;19964;-73
2022/09/03 08:41:49;;;;;;;6.03;1.80;;;;;;;20.37;47.63;101008.84;5002634;28;20037;-73
2022/09/03 08:44:24;;;;;;;4.65;2.20;;;;;;;20.44;46.84;101004.59;5002921;28;20034;-74
2022/09/03 08:47:02;;;;;;;4.72;1.80;;;;;;;20.61;46.67;101006.16;5002325;28;20154;-73
2022/09/03 08:49:27;;;;;;;;;;;;;;;20.69;47.41;101005.53;4999660;28;20148;-74
2022/09/03 08:51:56;;;;;;;5.67;2.53;;;;;;;20.77;46.05;101007.66;5000728;28;20424;-74
2022/09/03 08:54:25;;;;;;;4.55;1.80;;;;;;;20.99;45.94;101012.75;5002942;28;20288;-74
2022/09/03 08:56:52;;;;;;;6.53;1.80;;;;;;;21.29;44.75;101013.47;5001671;28;20122;-73
2022/09/03 08:59:17;;;;;;;6.35;1.50;;;;;;;21.73;44.17;101000.06;5002417;28;20420;-74
2022/09/03 09:02:00;;;;;;;5.47;1.55;;;;;;;22.63;42.29;101000.03;5002558;28;20042;-69
2022/09/03 09:04:51;;;;;;;5.13;1.58;;;;;;;23.38;42.16;101010.91;5002515;28;20036;-74
2022/09/03 09:07:23;;;;;;;6.97;1.98;;;;;;;23.59;39.92;101013.25;5002320;28;20485;-75
2022/09/03 09:10:14;;;;;;;8.63;2.58;;;;;;;24.53;38.56;101009.63;5002481;28;20113;-77
2022/09/03 09:13:01;;;;;;;3.90;1.60;;;;;;;26.04;36.59;101001.88;5002518;28;20109;-75
2022/09/03 09:15:39;;;;;;;3.72;1.50;;;;;;;28.29;34.03;101011.34;5002832;28;20365;-76
2022/09/03 09:18:45;;;;;;;4.85;1.50;;;;;;;30.04;33.08;101003.13;5001530;28;20430;-77
2022/09/03 09:21:12;;;;;;;4.55;1.40;;;;;;;31.66;27.14;101007.09;5001169;28;20038;-77
2022/09/03 09:23:49;;;;;;;3.88;1.70;;;;;;;32.53;27.83;101009.41;5002395;28;20436;-76
2022/09/03 09:26:17;;;;;;;4.78;1.50;;;;;;;33.03;24.62;101009.53;5001891;28;20409;-75
2022/09/03 09:28:45;;;;;;;3.88;1.10;;;;;;;33.40;25.23;101009.75;5000908;28;20104;-76
2022/09/03 09:31:14;;;;;;;4.57;1.30;;;;;;;33.77;24.35;101004.25;5001650;28;20476;-74
2022/09/03 09:33:40;;;;;;;3.03;1.20;;;;;;;34.13;23.26;101001.91;5001628;28;20321;-74
2022/09/03 09:36:09;;;;;;;5.63;1.30;;;;;;;34.57;22.64;100998.34;5002207;28;20081;-74
2022/09/03 09:38:37;;;;;;;4.13;1.08;;;;;;;34.86;22.81;100993.75;5001400;28;20053;-74
2022/09/03 09:41:10;;;;;;;4.03;0.98;;;;;;;35.48;22.94;100987.38;5000066;28;20217;-74
2022/09/03 09:43:35;;;;;;;2.72;1.00;;;;;;;34.61;21.23;100993.50;5001908;28;20026;-74
2022/09/03 09:46:14;;;;;;;1.92;0.90;;;;;;;34.17;23.48;100999.94;5000285;28;20448;-74
2022/09/03 09:48:52;;;;;;;3.90;0.90;;;;;;;35.02;23.79;101002.91;5001408;28;20405;-74
2022/09/03 09:51:24;;;;;;;2.35;1.05;;;;;;;35.73;21.39;100994.06;5002238;28;20061;-73
2022/09/03 09:54:12;;;;;;;2.83;1.00;;;;;;;36.55;22.19;101011.63;5002467;28;20366;-74
2022/09/03 09:56:37;;;;;;;4.53;1.10;;;;;;;36.80;19.68;100999.38;5000145;28;20030;-74
2022/09/03 09:59:08;;;;;;;2.97;1.10;;;;;;;36.57;20.32;101012.03;4999570;28;20126;-75
2022/09/03 10:01:37;;;;;;;2.42;1.10;;;;;;;36.43;19.64;101006.28;5001601;28;20022;-75
2022/09/03 10:04:20;;;;;;;5.65;0.98;;;;;;;36.25;20.75;101002.53;5004071;28;20017;-77
2022/09/03 10:06:54;;;;;;;3.22;1.10;;;;;;;35.80;21.44;101004.72;5004983;28;20034;-77
2022/09/03 10:09:22;;;;;;;7.63;1.38;;;;;;;36.28;21.00;100999.66;5006570;28;20018;-77
2022/09/03 10:12:03;;;;;;;2.60;1.20;;;;;;;35.54;21.57;101000.09;4986440;28;20048;-76
2022/09/03 10:14:34;;;;;;;4.15;1.48;;;;;;;35.40;20.48;101000.78;4986266;28;20036;-77
2022/09/03 10:17:11;;;;;;;3.95;1.40;;;;;;;35.76;19.91;100995.31;4998893;28;20048;-76
2022/09/03 10:22:45;;;;;;;2.33;1.00;;;;;;;36.08;20.74;100995.50;4993263;28;20037;-76
2022/09/03 10:25:13;;;;;;;2.25;1.17;;;;;;;35.59;20.08;100991.13;5003524;28;20035;-74
2022/09/03 10:27:39;;;;;;;3.20;1.13;;;;;;;36.24;19.82;100987.38;5003649;28;20022;-76
2022/09/03 10:30:06;;;;;;;4.67;1.17;;;;;;;36.89;19.43;100989.22;5005115;28;20578;-76
2022/09/03 10:32:44;;;;;;;;;;;;;;;38.49;20.10;100984.38;5003842;28;20334;-76
2022/09/03 10:35:33;;;;;;;2.85;1.42;;;;;;;37.94;19.30;100982.16;5004208;28;19956;-75
2022/09/03 10:38:01;;;;;;;3.53;1.20;;;;;;;37.81;19.03;100980.94;5003152;28;20144;-75
2022/09/03 10:40:55;;;;;;;2.90;1.15;;;;;;;37.74;19.99;100993.25;5004905;28;20129;-75
2022/09/03 10:43:53;;;;;;;3.50;1.08;;;;;;;37.47;19.99;100984.31;5001732;28;20041;-74
2022/09/03 10:46:25;;;;;;;4.72;1.10;;;;;;;36.82;19.29;100985.50;5005306;28;20381;-75
2022/09/03 10:49:28;;;;;;;2.33;0.90;;;;;;;37.42;20.03;100979.00;5003873;28;20026;-76
2022/09/03 10:52:15;;;;;;;7.28;1.33;;;;;;;37.91;19.66;100992.38;5003977;28;20034;-75
2022/09/03 10:54:51;;;;;;;;;;;;;;;38.90;19.49;100984.50;5003855;28;20065;-75
2022/09/03 10:57:17;;;;;;;7.15;1.20;;;;;;;38.07;18.10;100971.03;5003018;28;20015;-75
2022/09/03 11:00:01;;;;;;;2.33;0.77;;;;;;;37.32;19.58;100977.75;5003845;28;20097;-75
2022/09/03 11:02:54;;;;;;;3.28;1.00;;;;;;;37.75;19.40;100985.47;5003276;28;20046;-75
2022/09/03 11:05:38;;;;;;;2.65;0.80;;;;;;;38.05;19.08;100977.19;5002142;28;20116;-74
2022/09/03 11:08:15;;;;;;;3.45;0.90;;;;;;;38.10;18.92;100971.00;5002609;28;20040;-75
2022/09/03 11:10:45;;;;;;;1.85;0.68;;;;;;;38.63;17.17;100974.84;5003847;28;20026;-75
2022/09/03 11:13:23;;;;;;;2.42;0.95;;;;;;;37.63;18.82;100984.69;5004119;28;20073;-75
2022/09/03 11:15:58;;;;;;;1.98;0.80;;;;;;;36.94;19.83;100981.44;5004210;28;20165;-76
2022/09/03 11:18:28;;;;;;;3.38;0.80;;;;;;;36.96;18.96;100979.81;4999812;28;20492;-75
2022/09/03 11:21:03;;;;;;;1.98;0.70;;;;;;;37.25;19.54;100976.94;5003097;28;20083;-76
2022/09/03 11:23:32;;;;;;;1.88;0.70;;;;;;;36.87;19.69;100979.38;5002112;28;20519;-75
2022/09/03 11:26:02;;;;;;;4.53;1.00;;;;;;;36.52;20.11;100969.50;5001761;28;20164;-76
2022/09/03 11:28:45;;;;;;;2.28;0.75;;;;;;;35.45;20.70;100969.00;5000043;28;20018;-75
2022/09/03 11:31:55;;;;;;;1.92;0.80;;;;;;;34.13;22.68;100972.56;5008071;28;20096;-75
2022/09/03 11:34:24;;;;;;;2.58;0.80;;;;;;;32.16;23.96;100971.28;5004914;28;20041;-75
2022/09/03 11:36:50;;;;;;;3.13;0.85;;;;;;;31.25;25.74;100964.75;5004373;28;20049;-75
2022/09/03 11:39:32;;;;;;;3.00;1.10;;;;;;;30.82;26.66;100962.03;5004580;28;20045;-75
2022/09/03 11:42:11;;;;;;;1.98;0.82;;;;;;;30.33;27.30;100963.13;5003560;28;20032;-75
2022/09/03 11:44:42;;;;;;;1.90;0.68;;;;;;;29.78;28.77;100953.41;5001841;28;20412;-75
2022/09/03 11:47:18;;;;;;;4.35;1.02;;;;;;;29.72;28.98;100949.19;4990377;28;20026;-77
2022/09/03 11:49:49;;;;;;;2.67;0.90;;;;;;;29.53;28.84;100951.81;5003490;28;20022;-76
2022/09/03 11:52:25;;;;;;;2.75;0.90;;;;;;;29.54;28.77;100950.66;5003473;28;20088;-74